createdAt,value
2023-02-08T04:42:43.516Z,15.80
2023-02-08T04:45:46.749Z,17.33
2023-02-08T04:48:50.154Z,14.07
2023-02-08T04:51:53.026Z,15.77
2023-02-08T04:54:55.631Z,15.27
2023-02-08T04:57:58.751Z,13.20
2023-02-08T05:01:07.371Z,13.18
2023-02-08T05:04:10.961Z,14.45
2023-02-08T05:07:13.466Z,17.75
2023-02-08T05:10:16.765Z,12.77
2023-02-08T05:13:20.729Z,13.25
2023-02-08T05:16:23.640Z,10.07
2023-02-08T05:19:27.013Z,14.75
2023-02-08T05:22:30.042Z,14.18
2023-02-08T05:25:32.744Z,9.82
2023-02-08T05:28:36.499Z,12.98
2023-02-08T05:31:39.468Z,14.40
2023-02-08T05:34:42.630Z,13.05
2023-02-08T05:37:45.339Z,12.57
2023-02-08T05:40:48.243Z,11.68
2023-02-08T05:43:50.834Z,12.73
2023-02-08T05:46:53.672Z,16.67
2023-02-08T05:49:56.360Z,16.77
2023-02-08T05:52:59.506Z,17.85
2023-02-08T05:56:02.265Z,13.32
2023-02-08T05:59:05.406Z,13.15
2023-02-08T06:02:08.378Z,10.70
2023-02-08T06:05:11.512Z,12.32
2023-02-08T06:08:15.377Z,13.35
2023-02-08T06:11:19.308Z,14.40
2023-02-08T06:14:21.883Z,13.50
2023-02-08T06:17:24.843Z,14.27
2023-02-08T06:20:27.936Z,13.55
2023-02-08T06:23:30.969Z,12.73
2023-02-08T06:26:34.447Z,15.82
2023-02-08T06:29:37.503Z,13.57
2023-02-08T06:32:40.610Z,15.82
2023-02-08T06:35:48.038Z,18.15
2023-02-08T06:38:51.410Z,22.77
2023-02-08T06:41:54.405Z,14.60
2023-02-08T06:44:58.320Z,15.27
2023-02-08T06:48:01.259Z,14.80
2023-02-08T06:51:05.152Z,12.37
2023-02-08T06:54:08.157Z,17.87
2023-02-08T06:57:12.985Z,14.23
2023-02-08T07:00:16.246Z,15.82
2023-02-08T07:03:22.636Z,13.32
2023-02-08T07:06:25.896Z,14.95
2023-02-08T07:09:28.759Z,16.90
2023-02-08T07:12:36.218Z,14.10
2023-02-08T07:15:38.874Z,17.65
2023-02-08T07:18:41.854Z,18.95
2023-02-08T07:21:44.545Z,12.93
2023-02-08T07:24:47.381Z,13.85
2023-02-08T07:27:50.067Z,15.70
2023-02-08T07:30:55.555Z,13.60
2023-02-08T07:33:59.213Z,14.70
2023-02-08T07:37:02.243Z,11.75
2023-02-08T07:40:05.252Z,15.77
2023-02-08T07:43:08.576Z,13.57
2023-02-08T07:46:23.714Z,16.27
2023-02-08T07:49:26.743Z,14.75
2023-02-08T07:52:29.996Z,17.87
2023-02-08T07:55:32.990Z,15.50
2023-02-08T07:58:35.833Z,15.98
2023-02-08T08:01:38.890Z,15.85
2023-02-08T08:04:42.237Z,16.60
2023-02-08T08:07:44.837Z,14.98
2023-02-08T08:10:47.947Z,16.90
2023-02-08T08:13:50.849Z,18.35
2023-02-08T08:16:53.761Z,19.12
2023-02-08T08:19:56.456Z,15.02
2023-02-08T08:23:01.076Z,13.15
2023-02-08T08:26:13.961Z,17.42
2023-02-08T08:29:16.861Z,18.45
2023-02-08T08:32:19.906Z,17.65
2023-02-08T08:35:22.754Z,19.33
2023-02-08T08:38:25.527Z,18.30
2023-02-08T08:41:28.591Z,16.50
2023-02-08T08:44:31.570Z,14.98
2023-02-08T08:47:34.545Z,18.55
2023-02-08T08:50:39.263Z,14.70
2023-02-08T08:53:42.342Z,21.58
2023-02-08T08:56:45.259Z,18.73
2023-02-08T08:59:48.231Z,14.38
2023-02-08T09:02:50.977Z,15.40
2023-02-08T09:05:54.319Z,12.70
2023-02-08T09:08:57.115Z,11.82
2023-02-08T09:12:00.182Z,10.07
2023-02-08T09:15:03.142Z,10.32
2023-02-08T09:18:06.741Z,10.35
2023-02-08T09:21:15.654Z,8.90
2023-02-08T09:24:19.437Z,11.50
2023-02-08T09:27:22.080Z,10.95
2023-02-08T09:30:25.636Z,11.15
2023-02-08T09:33:29.932Z,13.32
2023-02-08T09:36:35.243Z,11.63
2023-02-08T09:39:37.789Z,10.95
2023-02-08T09:42:43.449Z,10.63
2023-02-08T09:46:00.118Z,12.63
2023-02-08T09:49:08.940Z,13.50
2023-02-08T09:52:16.214Z,13.75
2023-02-08T09:55:31.416Z,12.35
2023-02-08T09:58:43.914Z,11.32
2023-02-08T10:01:49.725Z,10.77
2023-02-08T10:05:01.767Z,10.73
2023-02-08T10:08:11.101Z,11.05
2023-02-08T10:11:52.224Z,14.87
2023-02-08T10:15:26.491Z,11.73
2023-02-08T10:18:44.486Z,15.02
2023-02-08T10:21:56.285Z,12.98
2023-02-08T10:25:32.439Z,11.82
2023-02-08T10:28:57.946Z,14.45
2023-02-08T10:32:25.263Z,13.55
2023-02-08T10:35:41.644Z,13.93
2023-02-08T10:38:46.968Z,12.50
2023-02-08T10:41:51.425Z,12.98
2023-02-08T10:45:23.827Z,12.68
2023-02-08T10:48:40.785Z,13.18
2023-02-08T10:51:46.284Z,14.48
2023-02-08T10:54:49.216Z,11.75
2023-02-08T10:57:58.137Z,13.98
2023-02-08T11:01:01.584Z,14.20
2023-02-08T11:04:10.179Z,13.15
2023-02-08T11:07:21.470Z,13.45
2023-02-08T11:10:26.378Z,12.27
2023-02-08T11:13:44.436Z,11.85
2023-02-08T11:16:56.725Z,15.20
2023-02-08T11:20:00.470Z,12.23
2023-02-08T11:23:15.474Z,11.98
2023-02-08T11:26:20.974Z,13.48
2023-02-08T11:29:27.211Z,16.60
2023-02-08T11:32:29.898Z,19.10
2023-02-08T11:35:33.961Z,12.60
2023-02-08T11:38:42.296Z,12.70
2023-02-08T11:41:47.864Z,12.37
2023-02-08T11:44:51.501Z,10.40
2023-02-08T11:47:54.528Z,12.80
2023-02-08T11:51:04.593Z,9.35
2023-02-08T11:54:41.533Z,11.32
2023-02-08T11:58:17.498Z,11.63
2023-02-08T12:01:22.478Z,12.30
2023-02-08T12:04:25.418Z,11.20
2023-02-08T12:07:50.875Z,13.25
2023-02-08T12:11:22.647Z,15.48
2023-02-08T12:14:50.080Z,14.38
2023-02-08T12:17:55.970Z,10.95
2023-02-08T12:21:20.111Z,12.23
2023-02-08T12:24:36.144Z,10.85
2023-02-08T12:27:55.299Z,13.38
2023-02-08T12:31:11.970Z,13.38
2023-02-08T12:34:46.791Z,11.70
2023-02-08T12:38:14.859Z,9.80
2023-02-08T12:41:30.902Z,10.00
2023-02-08T12:44:58.005Z,9.82
2023-02-08T12:48:04.433Z,11.80
2023-02-08T12:51:43.471Z,8.10
2023-02-08T12:54:54.031Z,9.60
2023-02-08T12:58:23.047Z,9.00
2023-02-08T13:01:29.377Z,9.05
2023-02-08T13:04:41.576Z,8.20
2023-02-08T13:07:50.540Z,9.50
2023-02-08T13:11:19.187Z,9.75
2023-02-08T13:14:28.385Z,9.73
2023-02-08T13:17:47.151Z,11.90
2023-02-08T13:24:14.697Z,9.15
2023-02-08T13:27:20.141Z,10.85
2023-02-08T13:30:24.274Z,11.20
2023-02-08T13:34:00.908Z,9.40
2023-02-08T13:37:24.621Z,11.30
2023-02-08T13:40:32.393Z,9.65
2023-02-08T13:44:01.939Z,11.60
2023-02-08T13:47:07.654Z,8.48
2023-02-08T13:50:32.623Z,8.75
2023-02-08T13:53:38.285Z,9.88
2023-02-08T13:56:51.852Z,9.48
2023-02-08T14:00:19.601Z,10.55
2023-02-08T14:03:28.662Z,7.07
2023-02-08T14:06:32.242Z,9.57
2023-02-08T14:09:47.760Z,12.77
2023-02-08T14:12:59.676Z,8.38
2023-02-08T14:16:38.842Z,7.30
2023-02-08T14:19:46.681Z,15.53
2023-02-08T14:22:52.622Z,8.18
2023-02-08T14:25:58.100Z,10.38
2023-02-08T14:29:05.345Z,12.20
2023-02-08T14:32:08.552Z,8.93
2023-02-08T14:35:26.359Z,9.85
2023-02-08T14:38:34.106Z,10.13
2023-02-08T14:41:49.859Z,8.95
2023-02-08T14:45:01.272Z,10.55
2023-02-08T14:48:30.419Z,5.60
2023-02-08T14:51:37.201Z,11.12
2023-02-08T14:55:02.711Z,10.90
2023-02-08T14:58:08.522Z,10.30
2023-02-08T15:01:27.239Z,13.18
2023-02-08T15:04:32.649Z,10.32
2023-02-08T15:07:46.088Z,13.07
2023-02-08T15:10:48.970Z,11.43
2023-02-08T15:13:55.918Z,9.88
2023-02-08T15:16:59.098Z,11.95
2023-02-08T15:20:06.614Z,10.98
2023-02-08T15:23:22.969Z,14.02
2023-02-08T15:26:26.912Z,10.25
2023-02-08T15:29:42.875Z,9.32
2023-02-08T15:32:47.298Z,13.32
2023-02-08T15:36:05.196Z,9.65
2023-02-08T15:39:24.908Z,11.38
2023-02-08T15:42:32.686Z,11.77
2023-02-08T15:45:36.006Z,16.20
2023-02-08T15:48:44.402Z,15.48
2023-02-08T15:51:48.720Z,13.60
2023-02-08T15:54:52.123Z,12.77
2023-02-08T15:58:00.397Z,13.73
2023-02-08T16:01:05.370Z,12.18
2023-02-08T16:04:12.658Z,14.32
2023-02-08T16:07:32.319Z,15.45
2023-02-08T16:10:44.145Z,13.95
2023-02-08T16:13:51.461Z,12.10
2023-02-08T16:16:57.324Z,14.80
2023-02-08T16:20:00.025Z,13.48
2023-02-08T16:23:25.584Z,13.23
2023-02-08T16:26:35.969Z,12.75
2023-02-08T16:29:40.141Z,16.73
2023-02-08T16:32:43.073Z,14.32
2023-02-08T16:35:46.692Z,12.50
2023-02-08T16:39:12.324Z,14.05
2023-02-08T16:42:40.000Z,15.10
2023-02-08T16:45:42.830Z,14.38
2023-02-08T16:48:50.303Z,16.52
2023-02-08T16:52:00.140Z,16.60
2023-02-08T16:55:03.699Z,19.60
